createdAt,value
2016-12-24T00:00:15.284Z,1016.91
2016-12-24T00:01:48.831Z,1016.85
2016-12-24T00:03:22.985Z,1016.9
2016-12-24T00:04:57.060Z,1016.9
2016-12-24T00:06:30.711Z,1016.86
2016-12-24T00:08:24.508Z,1016.81
2016-12-24T00:09:58.117Z,1016.8
2016-12-24T00:11:32.108Z,1016.81
2016-12-24T00:13:07.255Z,1016.84
2016-12-24T00:14:41.042Z,1016.8
2016-12-24T00:18:16.637Z,1016.87
2016-12-24T00:19:50.562Z,1016.82
2016-12-24T00:21:24.886Z,1016.91
2016-12-24T00:22:58.851Z,1017.06
2016-12-24T00:24:32.524Z,1017
2016-12-24T00:26:06.143Z,1017.03
2016-12-24T00:27:41.680Z,1017.03
2016-12-24T00:29:15.757Z,1017.02
2016-12-24T00:31:09.242Z,1016.98
2016-12-24T00:32:42.516Z,1017.01
2016-12-24T00:34:16.095Z,1016.94
2016-12-24T00:35:50.392Z,1016.9
2016-12-24T00:37:24.542Z,1016.87
2016-12-24T00:38:59.159Z,1016.91
2016-12-24T00:40:32.663Z,1016.73
2016-12-24T00:42:07.413Z,1016.73
2016-12-24T00:43:42.002Z,1016.74
2016-12-24T00:45:11.116Z,1016.77
2016-12-24T00:46:44.982Z,1016.9
2016-12-24T00:48:18.362Z,1016.96
2016-12-24T00:49:52.432Z,1016.9
2016-12-24T00:51:26.642Z,1016.84
2016-12-24T00:53:26.392Z,1016.77
2016-12-24T00:54:59.690Z,1016.81
2016-12-24T00:56:33.472Z,1016.78
2016-12-24T00:58:06.791Z,1016.82
2016-12-24T00:59:40.608Z,1016.77
2016-12-24T01:01:14.021Z,1016.71
2016-12-24T01:02:47.642Z,1016.64
2016-12-24T01:04:21.483Z,1016.62
2016-12-24T01:05:54.750Z,1016.59
2016-12-24T01:07:28.998Z,1016.56
2016-12-24T01:09:02.578Z,1016.52
2016-12-24T01:10:35.898Z,1016.51
2016-12-24T01:12:09.410Z,1016.51
2016-12-24T01:13:43.411Z,1016.61
2016-12-24T01:15:16.947Z,1016.55
2016-12-24T01:16:50.266Z,1016.52
2016-12-24T01:18:49.022Z,1016.5
2016-12-24T01:20:23.143Z,1016.59
2016-12-24T01:21:57.083Z,1016.66
2016-12-24T01:23:30.681Z,1016.61
2016-12-24T01:25:04.046Z,1016.57
2016-12-24T01:26:37.913Z,1016.51
2016-12-24T01:28:11.773Z,1016.51
2016-12-24T01:29:45.163Z,1016.48
2016-12-24T01:31:18.924Z,1016.44
2016-12-24T01:32:52.451Z,1016.39
2016-12-24T01:34:26.268Z,1016.36
2016-12-24T01:36:18.832Z,1016.36
2016-12-24T01:37:52.084Z,1016.29
2016-12-24T01:39:26.018Z,1016.32
2016-12-24T01:40:59.445Z,1016.21
2016-12-24T01:42:33.524Z,1016.17
2016-12-24T01:44:02.543Z,1016.16
2016-12-24T01:45:18.533Z,1016.18
2016-12-24T01:47:13.764Z,1016.12
2016-12-24T01:48:47.608Z,1016.11
2016-12-24T01:50:21.284Z,1016.16
2016-12-24T01:51:54.587Z,1016.13
2016-12-24T01:53:28.425Z,1016.12
2016-12-24T01:55:02.050Z,1016.07
2016-12-24T01:56:35.684Z,1015.97
2016-12-24T01:58:09.083Z,1016.01
2016-12-24T01:59:42.824Z,1016.03
2016-12-24T02:01:16.136Z,1016.1
2016-12-24T02:02:50.088Z,1016.1
2016-12-24T02:04:24.426Z,1016.11
2016-12-24T02:06:19.694Z,1016.1
2016-12-24T02:07:53.356Z,1016.1
2016-12-24T02:09:26.743Z,1016.1
2016-12-24T02:11:00.639Z,1016.03
2016-12-24T02:12:34.681Z,1016.08
2016-12-24T02:14:08.672Z,1016.05
2016-12-24T02:15:42.218Z,1016
2016-12-24T02:17:15.763Z,1015.96
2016-12-24T02:18:49.427Z,1015.95
2016-12-24T02:20:23.300Z,1015.96
2016-12-24T02:21:56.836Z,1015.97
2016-12-24T02:23:25.538Z,1015.97
2016-12-24T02:24:59.186Z,1015.94
2016-12-24T02:26:32.485Z,1015.99
2016-12-24T02:28:06.307Z,1015.93
2016-12-24T02:29:39.909Z,1016
2016-12-24T02:31:14.501Z,1015.94
2016-12-24T02:32:43.061Z,1015.85
2016-12-24T02:34:16.484Z,1015.91
2016-12-24T02:35:50.095Z,1015.91
2016-12-24T02:39:25.360Z,1015.85
2016-12-24T02:40:58.967Z,1015.83
2016-12-24T02:42:32.846Z,1015.88
2016-12-24T02:44:06.481Z,1015.84
2016-12-24T02:45:40.149Z,1015.87
2016-12-24T02:47:14.459Z,1015.83
2016-12-24T02:48:47.893Z,1015.82
2016-12-24T02:50:21.599Z,1015.89
2016-12-24T02:51:55.763Z,1015.82
2016-12-24T02:53:29.266Z,1015.82
2016-12-24T02:55:03.220Z,1015.84
2016-12-24T02:56:36.483Z,1015.79
2016-12-24T02:58:04.891Z,1015.71
2016-12-24T03:00:05.966Z,1015.72
2016-12-24T03:01:39.584Z,1015.63
2016-12-24T03:03:12.928Z,1015.62
2016-12-24T03:04:46.438Z,1015.58
2016-12-24T03:06:20.018Z,1015.65
2016-12-24T03:07:49.496Z,1015.62
2016-12-24T03:09:22.726Z,1015.65
2016-12-24T03:10:56.093Z,1015.61
2016-12-24T03:12:29.899Z,1015.62
2016-12-24T03:14:03.479Z,1015.59
2016-12-24T03:15:37.256Z,1015.58
2016-12-24T03:17:11.221Z,1015.55
2016-12-24T03:18:45.163Z,1015.64
2016-12-24T03:20:19.004Z,1015.65
2016-12-24T03:21:52.717Z,1015.61
2016-12-24T03:23:26.661Z,1015.6
2016-12-24T03:25:00.676Z,1015.53
2016-12-24T03:26:34.521Z,1015.57
2016-12-24T03:28:02.642Z,1015.45
2016-12-24T03:29:31.270Z,1015.51
2016-12-24T03:31:04.954Z,1015.51
2016-12-24T03:32:38.730Z,1015.49
2016-12-24T03:34:12.267Z,1015.52
2016-12-24T03:35:45.538Z,1015.41
2016-12-24T03:37:19.109Z,1015.45
2016-12-24T03:38:52.912Z,1015.37
2016-12-24T03:40:26.323Z,1015.39
2016-12-24T03:41:59.551Z,1015.36
2016-12-24T03:43:35.412Z,1015.37
2016-12-24T03:45:09.048Z,1015.36
2016-12-24T03:46:42.599Z,1015.33
2016-12-24T03:48:15.833Z,1015.29
2016-12-24T03:49:49.826Z,1015.3
2016-12-24T03:51:42.571Z,1015.27
2016-12-24T03:53:16.120Z,1015.21
2016-12-24T03:54:49.444Z,1015.16
2016-12-24T03:58:04.601Z,1015.14
2016-12-24T03:59:38.737Z,1015.08
2016-12-24T04:01:31.827Z,1015.23
2016-12-24T04:03:05.400Z,1015.14
2016-12-24T04:04:38.984Z,1015.14
2016-12-24T04:06:12.554Z,1015.1
2016-12-24T04:07:46.107Z,1015.18
2016-12-24T04:09:19.982Z,1015.15
2016-12-24T04:10:54.000Z,1015.18
2016-12-24T04:12:27.740Z,1015.22
2016-12-24T04:14:01.304Z,1015.21
2016-12-24T04:15:34.889Z,1015.23
2016-12-24T04:17:08.195Z,1015.2
2016-12-24T04:18:42.232Z,1015.2
2016-12-24T04:20:15.758Z,1015.22
2016-12-24T04:21:49.377Z,1015.2
2016-12-24T04:23:22.663Z,1015.17
2016-12-24T04:24:56.225Z,1015.19
2016-12-24T04:26:29.724Z,1015.2
2016-12-24T04:27:57.886Z,1015.2
2016-12-24T04:29:28.057Z,1015.18
2016-12-24T04:30:42.512Z,1015.23
2016-12-24T04:32:35.585Z,1015.19
2016-12-24T04:34:09.135Z,1015.22
2016-12-24T04:35:42.760Z,1015.22
2016-12-24T04:37:16.337Z,1015.21
2016-12-24T04:38:49.639Z,1015.23
2016-12-24T04:40:23.116Z,1015.24
2016-12-24T04:41:56.990Z,1015.18
2016-12-24T04:43:30.792Z,1015.11
2016-12-24T04:45:04.532Z,1015.12
2016-12-24T04:46:38.265Z,1015.13
2016-12-24T04:48:12.140Z,1015.12
2016-12-24T04:49:46.162Z,1015.17
2016-12-24T04:51:20.151Z,1015.25
2016-12-24T04:52:53.438Z,1015.2
2016-12-24T04:54:27.371Z,1015.25
2016-12-24T04:56:00.983Z,1015.22
2016-12-24T04:57:34.297Z,1015.25
2016-12-24T04:59:03.183Z,1015.24
2016-12-24T05:00:37.177Z,1015.23
2016-12-24T05:02:10.531Z,1015.23
2016-12-24T05:03:44.136Z,1015.21
2016-12-24T05:05:17.654Z,1015.25
2016-12-24T05:06:51.602Z,1015.19
2016-12-24T05:08:25.135Z,1015.35
2016-12-24T05:10:19.520Z,1015.34
2016-12-24T05:11:53.098Z,1015.25
2016-12-24T05:13:26.460Z,1015.32
2016-12-24T05:14:59.821Z,1015.24
2016-12-24T05:16:34.033Z,1015.25
2016-12-24T05:18:08.328Z,1015.22
2016-12-24T05:19:41.683Z,1015.26
2016-12-24T05:21:17.879Z,1015.26
2016-12-24T05:22:51.224Z,1015.22
2016-12-24T05:24:25.289Z,1015.19
2016-12-24T05:25:58.898Z,1015.19
2016-12-24T05:27:33.255Z,1015.21
2016-12-24T05:29:25.771Z,1015.17
2016-12-24T05:30:59.147Z,1015.2
2016-12-24T05:32:32.878Z,1015.15
2016-12-24T05:34:06.509Z,1015.14
2016-12-24T05:35:40.041Z,1015.18
2016-12-24T05:37:13.342Z,1015.16
2016-12-24T05:38:47.659Z,1015.22
2016-12-24T05:40:21.828Z,1015.24
2016-12-24T05:41:55.638Z,1015.31
2016-12-24T05:43:29.957Z,1015.35
2016-12-24T05:45:03.487Z,1015.31
2016-12-24T05:46:36.791Z,1015.3
2016-12-24T05:48:10.362Z,1015.38
2016-12-24T05:49:44.215Z,1015.42
2016-12-24T05:51:18.189Z,1015.42
2016-12-24T05:52:51.513Z,1015.35
2016-12-24T05:54:24.904Z,1015.39
2016-12-24T05:56:18.231Z,1015.38
2016-12-24T05:57:51.840Z,1015.38
2016-12-24T05:59:25.217Z,1015.34
2016-12-24T06:00:58.912Z,1015.41
2016-12-24T06:04:33.997Z,1015.3
2016-12-24T06:06:07.699Z,1015.28
2016-12-24T06:07:41.265Z,1015.29
2016-12-24T06:09:15.109Z,1015.27
2016-12-24T06:10:48.730Z,1015.26
2016-12-24T06:12:22.455Z,1015.32
2016-12-24T06:13:51.026Z,1015.29
2016-12-24T06:15:25.077Z,1015.31
2016-12-24T06:16:59.014Z,1015.25
2016-12-24T06:18:32.327Z,1015.31
2016-12-24T06:20:01.963Z,1015.37
2016-12-24T06:21:16.948Z,1015.35
2016-12-24T06:23:10.005Z,1015.34
2016-12-24T06:24:43.681Z,1015.38
2016-12-24T06:26:17.297Z,1015.33
2016-12-24T06:27:47.090Z,1015.4
2016-12-24T06:29:02.069Z,1015.41
2016-12-24T06:30:55.073Z,1015.39
2016-12-24T06:32:28.757Z,1015.38
2016-12-24T06:34:02.188Z,1015.33
2016-12-24T06:35:36.438Z,1015.36
2016-12-24T06:37:10.352Z,1015.38
2016-12-24T06:38:43.601Z,1015.37
2016-12-24T06:40:17.359Z,1015.37
2016-12-24T06:41:50.930Z,1015.38
2016-12-24T06:43:24.598Z,1015.37
2016-12-24T06:44:58.588Z,1015.34
2016-12-24T06:46:32.164Z,1015.33
2016-12-24T06:48:05.808Z,1015.36
2016-12-24T06:49:39.331Z,1015.4
2016-12-24T06:51:12.667Z,1015.42
2016-12-24T06:52:46.550Z,1015.38
2016-12-24T06:54:20.116Z,1015.41
2016-12-24T06:55:53.872Z,1015.33
2016-12-24T06:57:47.058Z,1015.41
2016-12-24T06:59:22.930Z,1015.36
2016-12-24T07:00:56.608Z,1015.35
2016-12-24T07:02:30.445Z,1015.34
2016-12-24T07:04:04.266Z,1015.28
2016-12-24T07:05:37.776Z,1015.24
2016-12-24T07:07:11.386Z,1015.26
2016-12-24T07:08:40.269Z,1015.31
2016-12-24T07:10:14.227Z,1015.21
2016-12-24T07:11:48.100Z,1015.21
2016-12-24T07:13:22.071Z,1015.25
2016-12-24T07:14:55.459Z,1015.36
2016-12-24T07:16:29.112Z,1015.35
2016-12-24T07:18:02.987Z,1015.4
2016-12-24T07:19:37.061Z,1015.25
2016-12-24T07:21:10.367Z,1015.21
2016-12-24T07:22:38.445Z,1015.19
2016-12-24T07:24:12.703Z,1015.2
2016-12-24T07:25:46.751Z,1015.27
2016-12-24T07:27:20.405Z,1015.46
2016-12-24T07:28:54.143Z,1015.65
2016-12-24T07:30:27.422Z,1015.82
2016-12-24T07:32:02.003Z,1015.89
2016-12-24T07:33:36.100Z,1015.89
2016-12-24T07:35:05.331Z,1015.79
2016-12-24T07:36:39.507Z,1015.81
2016-12-24T07:38:13.558Z,1015.74
2016-12-24T07:39:47.428Z,1015.78
2016-12-24T07:41:21.384Z,1015.77
2016-12-24T07:43:15.156Z,1015.82
2016-12-24T07:44:49.031Z,1015.87
2016-12-24T07:46:23.491Z,1015.91
2016-12-24T07:47:59.153Z,1015.89
2016-12-24T07:49:34.021Z,1015.86
2016-12-24T07:51:07.522Z,1015.83
2016-12-24T07:52:41.225Z,1015.82
2016-12-24T07:54:14.763Z,1015.79
2016-12-24T07:55:48.315Z,1015.77
2016-12-24T07:57:22.983Z,1015.79
2016-12-24T07:59:16.561Z,1015.79
2016-12-24T08:00:53.294Z,1015.79
2016-12-24T08:02:07.472Z,1015.8
2016-12-24T08:04:00.573Z,1015.83
2016-12-24T08:05:34.104Z,1015.83
2016-12-24T08:07:07.412Z,1015.75
2016-12-24T08:08:37.515Z,1015.78
2016-12-24T08:09:53.505Z,1015.82
2016-12-24T08:11:46.476Z,1015.81
2016-12-24T08:13:23.079Z,1015.81
2016-12-24T08:14:57.610Z,1015.77
2016-12-24T08:16:31.749Z,1015.84
2016-12-24T08:18:05.772Z,1015.71
2016-12-24T08:19:40.203Z,1015.65
2016-12-24T08:21:15.582Z,1015.66
2016-12-24T08:23:08.947Z,1015.6
2016-12-24T08:24:42.516Z,1015.62
2016-12-24T08:26:19.230Z,1015.64
2016-12-24T08:27:53.174Z,1015.63
2016-12-24T08:29:28.019Z,1015.68
2016-12-24T08:31:03.065Z,1015.65
2016-12-24T08:32:56.499Z,1015.72
2016-12-24T08:34:30.512Z,1015.76
2016-12-24T08:36:04.160Z,1015.73
2016-12-24T08:37:39.710Z,1015.8
2016-12-24T08:39:13.206Z,1015.85
2016-12-24T08:40:46.836Z,1015.87
2016-12-24T08:42:20.701Z,1015.85
2016-12-24T08:43:54.073Z,1015.9
2016-12-24T08:45:27.801Z,1015.97
2016-12-24T08:47:01.577Z,1015.92
2016-12-24T08:48:35.262Z,1015.97
2016-12-24T08:50:08.696Z,1015.95
2016-12-24T08:51:42.499Z,1015.9
2016-12-24T08:53:36.263Z,1015.86
2016-12-24T08:55:09.593Z,1015.8
2016-12-24T08:56:43.076Z,1015.67
2016-12-24T08:58:16.971Z,1015.64
2016-12-24T08:59:51.489Z,1015.57
2016-12-24T09:01:25.443Z,1015.53
2016-12-24T09:02:58.994Z,1015.48
2016-12-24T09:04:33.452Z,1015.47
2016-12-24T09:06:07.944Z,1015.33
2016-12-24T09:07:41.715Z,1015.28
2016-12-24T09:09:15.262Z,1015.31
2016-12-24T09:10:48.956Z,1015.28
2016-12-24T09:12:23.613Z,1015.35
2016-12-24T09:14:16.400Z,1015.45
2016-12-24T09:15:49.660Z,1015.55
2016-12-24T09:17:23.612Z,1015.57
2016-12-24T09:18:59.530Z,1015.57
2016-12-24T09:20:37.361Z,1015.53
2016-12-24T09:22:36.579Z,1015.5
2016-12-24T09:24:34.137Z,1015.48
2016-12-24T09:25:48.697Z,1015.59
2016-12-24T09:28:11.512Z,1015.55
2016-12-24T09:29:28.144Z,1015.57
2016-12-24T09:31:21.913Z,1015.59
2016-12-24T09:32:55.687Z,1015.53
2016-12-24T09:34:29.306Z,1015.51
2016-12-24T09:36:09.080Z,1015.54
2016-12-24T09:38:05.727Z,1015.51
2016-12-24T09:39:39.552Z,1015.64
2016-12-24T09:41:13.092Z,1015.71
2016-12-24T09:42:47.922Z,1015.76
2016-12-24T09:44:21.237Z,1015.73
2016-12-24T09:45:56.066Z,1015.7
2016-12-24T09:47:31.137Z,1015.72
2016-12-24T09:49:25.377Z,1015.62
2016-12-24T09:50:59.009Z,1015.69
2016-12-24T09:52:32.377Z,1015.8
2016-12-24T09:54:05.639Z,1015.84
2016-12-24T09:55:40.383Z,1015.9
2016-12-24T09:57:13.723Z,1015.97
2016-12-24T09:58:47.113Z,1016.06
2016-12-24T10:00:20.392Z,1016.05
2016-12-24T10:01:54.355Z,1015.99
2016-12-24T10:03:27.917Z,1015.99
2016-12-24T10:05:01.297Z,1016.02
2016-12-24T10:06:35.592Z,1015.96
2016-12-24T10:08:09.217Z,1015.89
2016-12-24T10:09:42.855Z,1015.99
2016-12-24T10:11:16.165Z,1016.06
2016-12-24T10:12:49.443Z,1016.09
2016-12-24T10:14:18.157Z,1016
2016-12-24T10:15:52.152Z,1015.99
2016-12-24T10:17:28.111Z,1015.97
2016-12-24T10:19:01.476Z,1015.99
2016-12-24T10:20:55.347Z,1015.99
2016-12-24T10:22:28.638Z,1015.96
2016-12-24T10:24:01.942Z,1015.96
2016-12-24T10:25:35.983Z,1015.88
2016-12-24T10:27:10.739Z,1015.71
2016-12-24T10:28:44.848Z,1015.81
2016-12-24T10:30:18.503Z,1016.01
2016-12-24T10:31:51.958Z,1016.18
2016-12-24T10:33:26.244Z,1016.21
2016-12-24T10:35:00.740Z,1016.14
2016-12-24T10:36:34.404Z,1016.15
2016-12-24T10:38:07.722Z,1016.32
2016-12-24T10:39:42.737Z,1016.28
2016-12-24T10:41:35.212Z,1016.06
2016-12-24T10:43:08.535Z,1015.91
2016-12-24T10:44:42.403Z,1015.88
2016-12-24T10:46:15.699Z,1015.8
2016-12-24T10:47:49.259Z,1015.83
2016-12-24T10:49:23.369Z,1015.77
2016-12-24T10:50:52.759Z,1015.66
2016-12-24T10:52:26.543Z,1015.66
2016-12-24T10:54:00.185Z,1015.63
2016-12-24T10:55:34.178Z,1015.65
2016-12-24T10:57:08.369Z,1015.61
2016-12-24T10:58:41.683Z,1015.68
2016-12-24T11:00:14.952Z,1015.67
2016-12-24T11:01:48.604Z,1015.77
2016-12-24T11:03:22.215Z,1015.84
2016-12-24T11:04:56.223Z,1015.7
2016-12-24T11:06:24.407Z,1015.69
2016-12-24T11:07:54.385Z,1015.7
2016-12-24T11:09:09.010Z,1015.67
2016-12-24T11:11:02.711Z,1015.73
2016-12-24T11:12:36.780Z,1015.71
2016-12-24T11:14:10.413Z,1015.8
2016-12-24T11:15:44.147Z,1015.72
2016-12-24T11:17:18.198Z,1015.69
2016-12-24T11:18:53.237Z,1015.6
2016-12-24T11:20:53.586Z,1015.51
2016-12-24T11:22:29.783Z,1015.64
2016-12-24T11:24:10.242Z,1015.68
2016-12-24T11:25:40.074Z,1015.57
2016-12-24T11:27:13.659Z,1015.58
2016-12-24T11:28:48.752Z,1015.52
2016-12-24T11:30:41.922Z,1015.41
2016-12-24T11:32:16.434Z,1015.39
2016-12-24T11:33:53.493Z,1015.45
2016-12-24T11:35:26.240Z,1015.44
2016-12-24T11:37:03.579Z,1015.32
2016-12-24T11:39:00.570Z,1015.29
2016-12-24T11:40:36.179Z,1015.3
2016-12-24T11:42:06.374Z,1015.45
2016-12-24T11:43:41.896Z,1015.38
2016-12-24T11:45:18.277Z,1015.4
2016-12-24T11:47:13.900Z,1015.41
2016-12-24T11:48:48.656Z,1015.35
2016-12-24T11:50:24.854Z,1015.29
2016-12-24T11:52:01.454Z,1015.33
2016-12-24T11:53:57.783Z,1015.47
2016-12-24T11:55:31.780Z,1015.35
2016-12-24T11:57:09.297Z,1015.29
2016-12-24T11:58:38.669Z,1015.43
2016-12-24T12:00:13.070Z,1015.39
2016-12-24T12:02:12.797Z,1015.36
2016-12-24T12:03:51.421Z,1015.25
2016-12-24T12:05:27.020Z,1015.47
2016-12-24T12:07:21.890Z,1015.45
2016-12-24T12:08:55.671Z,1015.45
2016-12-24T12:10:25.488Z,1015.44
2016-12-24T12:11:40.353Z,1015.48
2016-12-24T12:13:33.832Z,1015.56
2016-12-24T12:15:07.433Z,1015.58
2016-12-24T12:16:41.219Z,1015.63
2016-12-24T12:18:15.135Z,1015.69
2016-12-24T12:19:49.694Z,1015.57
2016-12-24T12:21:31.255Z,1015.53
2016-12-24T12:23:23.839Z,1015.58
2016-12-24T12:24:57.296Z,1015.62
2016-12-24T12:26:31.233Z,1015.57
2016-12-24T12:28:04.990Z,1015.51
2016-12-24T12:29:38.807Z,1015.49
2016-12-24T12:31:08.256Z,1015.5
2016-12-24T12:32:42.041Z,1015.52
2016-12-24T12:36:27.358Z,1015.5
2016-12-24T12:38:02.618Z,1015.47
2016-12-24T12:39:33.109Z,1015.5
2016-12-24T12:41:07.365Z,1015.64
2016-12-24T12:43:01.275Z,1015.59
2016-12-24T12:44:36.677Z,1015.66
2016-12-24T12:46:13.458Z,1015.7
2016-12-24T12:47:47.359Z,1015.69
2016-12-24T12:49:21.530Z,1015.68
2016-12-24T12:50:54.974Z,1015.79
2016-12-24T12:52:28.968Z,1015.85
2016-12-24T12:54:22.175Z,1015.88
2016-12-24T12:55:55.653Z,1015.88
2016-12-24T12:57:29.709Z,1015.76
2016-12-24T12:59:03.392Z,1015.84
2016-12-24T13:00:38.449Z,1015.78
2016-12-24T13:02:11.939Z,1015.84
2016-12-24T13:03:45.643Z,1015.84
2016-12-24T13:05:47.107Z,1015.75
2016-12-24T13:07:21.187Z,1015.77
2016-12-24T13:08:54.692Z,1015.75
2016-12-24T13:10:29.033Z,1015.83
2016-12-24T13:12:02.916Z,1015.74
2016-12-24T13:13:36.600Z,1015.68
2016-12-24T13:15:11.252Z,1015.69
2016-12-24T13:16:46.166Z,1015.64
2016-12-24T13:18:19.541Z,1015.59
2016-12-24T13:20:12.685Z,1015.57
2016-12-24T13:21:46.811Z,1015.58
2016-12-24T13:23:20.261Z,1015.54
2016-12-24T13:24:54.582Z,1015.51
2016-12-24T13:26:28.385Z,1015.45
2016-12-24T13:28:03.491Z,1015.39
2016-12-24T13:29:39.817Z,1015.48
2016-12-24T13:31:34.495Z,1015.43
2016-12-24T13:33:37.887Z,1015.33
2016-12-24T13:35:11.798Z,1015.37
2016-12-24T13:36:46.563Z,1015.47
2016-12-24T13:38:26.856Z,1015.34
2016-12-24T13:39:59.768Z,1015.4
2016-12-24T13:41:55.900Z,1015.44
2016-12-24T13:43:27.663Z,1015.45
2016-12-24T13:45:02.952Z,1015.33
2016-12-24T13:46:39.794Z,1015.3
2016-12-24T13:48:13.865Z,1015.37
2016-12-24T13:50:12.329Z,1015.35
2016-12-24T13:51:50.031Z,1015.46
2016-12-24T13:53:25.463Z,1015.44
2016-12-24T13:55:21.132Z,1015.54
2016-12-24T13:56:56.918Z,1015.55
2016-12-24T13:58:31.241Z,1015.62
2016-12-24T14:00:07.984Z,1015.65
2016-12-24T14:01:43.195Z,1015.62
2016-12-24T14:03:39.128Z,1015.7
2016-12-24T14:05:16.040Z,1015.73
2016-12-24T14:06:52.988Z,1015.65
2016-12-24T14:08:49.349Z,1015.71
2016-12-24T14:10:26.674Z,1015.69
2016-12-24T14:11:57.200Z,1015.72
2016-12-24T14:13:34.498Z,1015.82
2016-12-24T14:15:30.066Z,1015.88
2016-12-24T14:17:06.747Z,1015.93
2016-12-24T14:18:43.018Z,1015.82
2016-12-24T14:20:41.604Z,1015.88
2016-12-24T14:22:16.689Z,1015.89
2016-12-24T14:23:51.584Z,1015.87
2016-12-24T14:25:28.705Z,1015.92
2016-12-24T14:26:58.672Z,1015.93
2016-12-24T14:28:35.670Z,1015.93
2016-12-24T14:30:29.654Z,1016
2016-12-24T14:32:04.059Z,1016.03
2016-12-24T14:33:40.848Z,1016
2016-12-24T14:35:16.985Z,1016.11
2016-12-24T14:36:53.372Z,1016.08
2016-12-24T14:38:48.618Z,1016.1
2016-12-24T14:40:23.080Z,1016.11
2016-12-24T14:41:59.092Z,1016.15
2016-12-24T14:43:33.979Z,1016.12
2016-12-24T14:45:28.289Z,1016.01
2016-12-24T14:47:05.071Z,1016.01
2016-12-24T14:48:42.015Z,1016.01
2016-12-24T14:50:39.371Z,1015.99
2016-12-24T14:52:14.674Z,1015.96
2016-12-24T14:53:53.252Z,1015.88
2016-12-24T14:55:24.609Z,1015.92
2016-12-24T14:56:54.008Z,1015.83
2016-12-24T14:58:29.443Z,1015.98
2016-12-24T15:00:02.108Z,1016
2016-12-24T15:01:38.224Z,1015.91
2016-12-24T15:03:33.872Z,1015.88
2016-12-24T15:05:03.842Z,1015.88
2016-12-24T15:06:18.463Z,1015.9
2016-12-24T15:08:14.470Z,1015.92
2016-12-24T15:09:51.152Z,1015.85
2016-12-24T15:11:28.458Z,1015.68
2016-12-24T15:13:22.589Z,1015.85
2016-12-24T15:14:53.061Z,1015.89
2016-12-24T15:16:28.864Z,1015.94
2016-12-24T15:18:03.313Z,1016.05
2016-12-24T15:19:37.647Z,1016.06
2016-12-24T15:21:15.413Z,1016.2
2016-12-24T15:23:19.555Z,1016.25
2016-12-24T15:25:20.611Z,1016.3
2016-12-24T15:26:54.531Z,1016.32
2016-12-24T15:28:30.082Z,1016.29
2016-12-24T15:30:04.919Z,1016.18
2016-12-24T15:32:03.605Z,1016.27
2016-12-24T15:33:39.025Z,1016.28
2016-12-24T15:35:37.176Z,1016.23
2016-12-24T15:37:11.149Z,1016.33
2016-12-24T15:38:49.247Z,1016.44
2016-12-24T15:40:23.394Z,1016.5
2016-12-24T15:42:18.593Z,1016.47
2016-12-24T15:43:48.668Z,1016.44
2016-12-24T15:45:23.726Z,1016.46
2016-12-24T15:48:40.124Z,1016.53
2016-12-24T15:50:34.577Z,1016.38
2016-12-24T15:52:11.434Z,1016.42
2016-12-24T15:53:47.218Z,1016.41
2016-12-24T15:55:22.545Z,1016.45
2016-12-24T15:57:17.550Z,1016.51
2016-12-24T15:58:54.600Z,1016.55
2016-12-24T16:00:32.551Z,1016.52
2016-12-24T16:02:28.202Z,1016.48
2016-12-24T16:04:03.685Z,1016.46
2016-12-24T16:05:39.410Z,1016.43
2016-12-24T16:07:13.676Z,1016.41
2016-12-24T16:09:07.710Z,1016.37
2016-12-24T16:10:43.666Z,1016.39
2016-12-24T16:12:21.663Z,1016.38
2016-12-24T16:13:55.814Z,1016.37
2016-12-24T16:15:33.462Z,1016.29
2016-12-24T16:17:26.586Z,1016.33
2016-12-24T16:19:01.381Z,1016.35
2016-12-24T16:20:35.464Z,1016.44
2016-12-24T16:22:10.657Z,1016.42
2016-12-24T16:23:47.265Z,1016.35
2016-12-24T16:25:18.746Z,1016.41
2016-12-24T16:26:52.558Z,1016.43
2016-12-24T16:28:49.376Z,1016.45
2016-12-24T16:30:26.173Z,1016.44
2016-12-24T16:32:01.114Z,1016.46
2016-12-24T16:33:36.623Z,1016.42
2016-12-24T16:35:34.394Z,1016.36
2016-12-24T16:37:09.661Z,1016.32
2016-12-24T16:38:46.354Z,1016.28
2016-12-24T16:42:58.836Z,1016.38
2016-12-24T16:44:55.850Z,1016.39
2016-12-24T16:46:30.410Z,1016.42
2016-12-24T16:48:04.718Z,1016.36
2016-12-24T16:49:41.579Z,1016.32
2016-12-24T16:51:42.206Z,1016.33
2016-12-24T16:53:16.555Z,1016.33
2016-12-24T16:54:50.582Z,1016.4
2016-12-24T16:56:45.443Z,1016.43
2016-12-24T16:58:20.617Z,1016.46
2016-12-24T16:59:58.328Z,1016.54
2016-12-24T17:01:32.502Z,1016.5
2016-12-24T17:03:08.545Z,1016.5
2016-12-24T17:04:58.928Z,1016.6
2016-12-24T17:06:38.585Z,1016.7
2016-12-24T17:08:13.447Z,1016.76
2016-12-24T17:09:51.492Z,1016.75
2016-12-24T17:11:53.606Z,1016.74
2016-12-24T17:13:49.452Z,1016.81
2016-12-24T17:15:21.121Z,1016.84
2016-12-24T17:16:55.930Z,1016.78
2016-12-24T17:18:27.242Z,1016.77
2016-12-24T17:20:07.119Z,1016.81
2016-12-24T17:21:41.544Z,1016.83
2016-12-24T17:23:16.935Z,1016.85
2016-12-24T17:25:10.644Z,1016.73
2016-12-24T17:26:45.563Z,1016.78
2016-12-24T17:28:19.223Z,1016.76
2016-12-24T17:29:55.632Z,1016.83
2016-12-24T17:31:32.367Z,1016.8
2016-12-24T17:33:26.929Z,1016.76
2016-12-24T17:34:57.124Z,1016.72
2016-12-24T17:36:31.825Z,1016.73
2016-12-24T17:38:05.609Z,1016.76
2016-12-24T17:39:42.979Z,1016.75
2016-12-24T17:41:13.627Z,1016.7
2016-12-24T17:42:43.177Z,1016.64
2016-12-24T17:44:17.621Z,1016.79
2016-12-24T17:45:51.356Z,1016.73
2016-12-24T17:47:29.980Z,1016.76
2016-12-24T17:49:06.720Z,1016.76
2016-12-24T17:51:01.029Z,1016.69
2016-12-24T17:52:36.288Z,1016.65
2016-12-24T17:54:13.120Z,1016.58
2016-12-24T17:55:50.252Z,1016.61
2016-12-24T17:57:46.615Z,1016.64
2016-12-24T17:59:54.086Z,1016.64
2016-12-24T18:01:30.412Z,1016.64
2016-12-24T18:03:29.272Z,1016.69
2016-12-24T18:05:06.197Z,1016.61
2016-12-24T18:07:00.875Z,1016.6
2016-12-24T18:08:42.753Z,1016.53
2016-12-24T18:10:17.641Z,1016.48
2016-12-24T18:12:11.845Z,1016.42
2016-12-24T18:13:53.090Z,1016.37
2016-12-24T18:15:48.983Z,1016.41
2016-12-24T18:17:23.719Z,1016.43
2016-12-24T18:19:00.367Z,1016.37
2016-12-24T18:20:34.043Z,1016.29
2016-12-24T18:22:31.658Z,1016.36
2016-12-24T18:24:06.285Z,1016.42
2016-12-24T18:25:44.212Z,1016.49
2016-12-24T18:27:21.206Z,1016.49
2016-12-24T18:29:18.969Z,1016.47
2016-12-24T18:30:53.937Z,1016.57
2016-12-24T18:32:30.507Z,1016.6
2016-12-24T18:34:29.431Z,1016.68
2016-12-24T18:36:05.303Z,1016.72
2016-12-24T18:38:01.923Z,1016.64
2016-12-24T18:40:07.258Z,1016.61
2016-12-24T18:41:41.657Z,1016.64
2016-12-24T18:43:17.791Z,1016.64
2016-12-24T18:45:20.051Z,1016.65
2016-12-24T18:46:56.992Z,1016.61
2016-12-24T18:48:32.254Z,1016.59
2016-12-24T18:50:27.566Z,1016.63
2016-12-24T18:52:03.946Z,1016.57
2016-12-24T18:53:37.452Z,1016.62
2016-12-24T18:55:10.847Z,1016.68
2016-12-24T18:56:44.196Z,1016.66
2016-12-24T18:58:18.119Z,1016.7
2016-12-24T18:59:52.386Z,1016.8
2016-12-24T19:01:26.288Z,1016.8
2016-12-24T19:02:54.669Z,1016.76
2016-12-24T19:04:28.948Z,1016.79
2016-12-24T19:06:24.285Z,1016.73
2016-12-24T19:07:58.867Z,1016.66
2016-12-24T19:09:32.347Z,1016.67
2016-12-24T19:11:06.492Z,1016.66
2016-12-24T19:12:40.955Z,1016.64
2016-12-24T19:14:14.611Z,1016.59
2016-12-24T19:15:47.975Z,1016.54
2016-12-24T19:17:21.638Z,1016.45
2016-12-24T19:18:55.932Z,1016.41
2016-12-24T19:20:29.723Z,1016.42
2016-12-24T19:22:03.424Z,1016.41
2016-12-24T19:23:37.400Z,1016.47
2016-12-24T19:25:11.230Z,1016.5
2016-12-24T19:26:45.037Z,1016.5
2016-12-24T19:28:18.425Z,1016.51
2016-12-24T19:29:47.280Z,1016.55
2016-12-24T19:31:21.635Z,1016.52
2016-12-24T19:32:50.951Z,1016.48
2016-12-24T19:34:24.807Z,1016.42
2016-12-24T19:35:58.667Z,1016.46
2016-12-24T19:37:32.338Z,1016.44
2016-12-24T19:39:06.334Z,1016.43
2016-12-24T19:40:40.131Z,1016.48
2016-12-24T19:42:14.177Z,1016.52
2016-12-24T19:43:48.796Z,1016.54
2016-12-24T19:45:42.376Z,1016.62
2016-12-24T19:47:16.127Z,1016.62
2016-12-24T19:48:49.760Z,1016.63